sensor_id;sensor_type;location;lat;lon;timestamp;P1;durP1;ratioP1;P2;durP2;ratioP2
76582;SDS011;65462;52.148;7.940;2023-07-20T00:02:02;1.98;;;0.60;;
76582;SDS011;65462;52.148;7.940;2023-07-20T00:04:30;1.20;;;0.88;;
76582;SDS011;65462;52.148;7.940;2023-07-20T00:06:55;1.63;;;0.93;;
76582;SDS011;65462;52.148;7.940;2023-07-20T00:09:20;2.38;;;0.77;;
76582;SDS011;65462;52.148;7.940;2023-07-20T00:11:50;1.00;;;0.73;;
76582;SDS011;65462;52.148;7.940;2023-07-20T00:14:16;1.00;;;0.63;;
76582;SDS011;65462;52.148;7.940;2023-07-20T00:16:41;1.98;;;0.82;;
76582;SDS011;65462;52.148;7.940;2023-07-20T00:19:06;3.47;;;0.70;;
76582;SDS011;65462;52.148;7.940;2023-07-20T00:21:34;1.00;;;0.52;;
76582;SDS011;65462;52.148;7.940;2023-07-20T00:23:59;2.47;;;0.70;;
76582;SDS011;65462;52.148;7.940;2023-07-20T00:26:24;1.20;;;0.80;;
76582;SDS011;65462;52.148;7.940;2023-07-20T00:28:49;0.90;;;0.60;;
76582;SDS011;65462;52.148;7.940;2023-07-20T00:31:16;0.80;;;0.70;;
76582;SDS011;65462;52.148;7.940;2023-07-20T00:33:41;1.52;;;0.60;;
76582;SDS011;65462;52.148;7.940;2023-07-20T00:36:06;0.82;;;0.60;;
76582;SDS011;65462;52.148;7.940;2023-07-20T00:38:32;1.35;;;0.90;;
76582;SDS011;65462;52.148;7.940;2023-07-20T00:40:57;2.50;;;0.90;;
76582;SDS011;65462;52.148;7.940;2023-07-20T00:43:22;0.95;;;0.60;;
76582;SDS011;65462;52.148;7.940;2023-07-20T00:45:48;1.33;;;0.80;;
76582;SDS011;65462;52.148;7.940;2023-07-20T00:48:13;1.40;;;0.90;;
76582;SDS011;65462;52.148;7.940;2023-07-20T00:50:39;0.90;;;0.68;;
76582;SDS011;65462;52.148;7.940;2023-07-20T00:53:05;1.70;;;0.93;;
76582;SDS011;65462;52.148;7.940;2023-07-20T00:55:31;3.10;;;0.80;;
76582;SDS011;65462;52.148;7.940;2023-07-20T00:57:56;2.70;;;0.90;;
76582;SDS011;65462;52.148;7.940;2023-07-20T01:00:22;1.80;;;0.90;;
76582;SDS011;65462;52.148;7.940;2023-07-20T01:02:48;1.52;;;0.70;;
76582;SDS011;65462;52.148;7.940;2023-07-20T01:05:13;0.95;;;0.85;;
76582;SDS011;65462;52.148;7.940;2023-07-20T01:13:10;1.70;;;0.75;;
76582;SDS011;65462;52.148;7.940;2023-07-20T01:15:38;0.95;;;0.80;;
76582;SDS011;65462;52.148;7.940;2023-07-20T01:18:04;0.90;;;0.70;;
76582;SDS011;65462;52.148;7.940;2023-07-20T01:20:30;1.65;;;1.00;;
76582;SDS011;65462;52.148;7.940;2023-07-20T01:25:55;4.57;;;1.00;;
76582;SDS011;65462;52.148;7.940;2023-07-20T01:28:37;2.10;;;1.13;;
76582;SDS011;65462;52.148;7.940;2023-07-20T01:31:24;1.65;;;0.95;;
76582;SDS011;65462;52.148;7.940;2023-07-20T01:33:53;1.08;;;0.90;;
76582;SDS011;65462;52.148;7.940;2023-07-20T01:36:21;0.85;;;0.70;;
76582;SDS011;65462;52.148;7.940;2023-07-20T01:38:48;1.35;;;0.88;;
76582;SDS011;65462;52.148;7.940;2023-07-20T01:41:14;2.10;;;1.15;;
76582;SDS011;65462;52.148;7.940;2023-07-20T01:43:40;0.95;;;0.80;;
76582;SDS011;65462;52.148;7.940;2023-07-20T01:46:05;1.48;;;1.00;;
76582;SDS011;65462;52.148;7.940;2023-07-20T01:48:31;0.90;;;0.80;;
76582;SDS011;65462;52.148;7.940;2023-07-20T01:50:56;1.35;;;0.88;;
76582;SDS011;65462;52.148;7.940;2023-07-20T01:53:22;1.90;;;1.02;;
76582;SDS011;65462;52.148;7.940;2023-07-20T01:55:47;3.08;;;1.23;;
76582;SDS011;65462;52.148;7.940;2023-07-20T01:58:13;0.90;;;0.88;;
76582;SDS011;65462;52.148;7.940;2023-07-20T02:00:38;1.65;;;0.98;;
76582;SDS011;65462;52.148;7.940;2023-07-20T02:03:03;2.17;;;1.20;;
76582;SDS011;65462;52.148;7.940;2023-07-20T02:05:29;1.15;;;0.90;;
76582;SDS011;65462;52.148;7.940;2023-07-20T02:07:54;2.08;;;0.95;;
76582;SDS011;65462;52.148;7.940;2023-07-20T02:10:19;2.05;;;1.10;;
76582;SDS011;65462;52.148;7.940;2023-07-20T02:12:45;1.67;;;1.00;;
76582;SDS011;65462;52.148;7.940;2023-07-20T02:15:10;1.42;;;1.10;;
76582;SDS011;65462;52.148;7.940;2023-07-20T02:17:36;2.22;;;0.90;;
76582;SDS011;65462;52.148;7.940;2023-07-20T02:20:02;1.73;;;0.90;;
76582;SDS011;65462;52.148;7.940;2023-07-20T02:22:28;1.83;;;1.15;;
76582;SDS011;65462;52.148;7.940;2023-07-20T02:24:53;1.05;;;0.88;;
76582;SDS011;65462;52.148;7.940;2023-07-20T02:27:18;1.58;;;0.90;;
76582;SDS011;65462;52.148;7.940;2023-07-20T02:29:43;1.55;;;0.90;;
76582;SDS011;65462;52.148;7.940;2023-07-20T02:32:09;1.20;;;1.00;;
76582;SDS011;65462;52.148;7.940;2023-07-20T02:34:37;2.78;;;0.90;;
76582;SDS011;65462;52.148;7.940;2023-07-20T02:37:02;2.22;;;1.00;;
76582;SDS011;65462;52.148;7.940;2023-07-20T02:39:28;2.35;;;1.20;;
76582;SDS011;65462;52.148;7.940;2023-07-20T02:41:53;1.40;;;1.08;;
76582;SDS011;65462;52.148;7.940;2023-07-20T02:44:19;1.50;;;1.17;;
76582;SDS011;65462;52.148;7.940;2023-07-20T02:46:44;2.03;;;1.20;;
76582;SDS011;65462;52.148;7.940;2023-07-20T02:49:09;3.03;;;1.30;;
76582;SDS011;65462;52.148;7.940;2023-07-20T02:51:35;1.50;;;1.10;;
76582;SDS011;65462;52.148;7.940;2023-07-20T02:54:00;1.67;;;1.00;;
76582;SDS011;65462;52.148;7.940;2023-07-20T02:56:26;2.10;;;1.20;;
76582;SDS011;65462;52.148;7.940;2023-07-20T02:58:51;2.53;;;1.50;;
76582;SDS011;65462;52.148;7.940;2023-07-20T03:01:17;2.72;;;1.85;;
76582;SDS011;65462;52.148;7.940;2023-07-20T03:03:42;3.15;;;1.60;;
76582;SDS011;65462;52.148;7.940;2023-07-20T03:06:11;2.60;;;1.80;;
76582;SDS011;65462;52.148;7.940;2023-07-20T03:08:40;3.03;;;1.90;;
76582;SDS011;65462;52.148;7.940;2023-07-20T03:11:17;3.45;;;1.67;;
76582;SDS011;65462;52.148;7.940;2023-07-20T03:13:43;2.67;;;2.20;;
76582;SDS011;65462;52.148;7.940;2023-07-20T03:16:13;3.30;;;2.05;;
76582;SDS011;65462;52.148;7.940;2023-07-20T03:18:42;3.30;;;2.38;;
76582;SDS011;65462;52.148;7.940;2023-07-20T03:21:08;2.45;;;2.20;;
76582;SDS011;65462;52.148;7.940;2023-07-20T03:23:36;3.83;;;2.30;;
76582;SDS011;65462;52.148;7.940;2023-07-20T03:26:01;2.58;;;2.10;;
76582;SDS011;65462;52.148;7.940;2023-07-20T03:28:27;3.40;;;2.20;;
76582;SDS011;65462;52.148;7.940;2023-07-20T03:30:53;2.25;;;2.05;;
76582;SDS011;65462;52.148;7.940;2023-07-20T03:33:19;2.75;;;2.30;;
76582;SDS011;65462;52.148;7.940;2023-07-20T03:35:45;2.50;;;1.92;;
76582;SDS011;65462;52.148;7.940;2023-07-20T03:38:10;2.80;;;2.13;;
76582;SDS011;65462;52.148;7.940;2023-07-20T03:40:35;3.63;;;1.85;;
76582;SDS011;65462;52.148;7.940;2023-07-20T03:43:00;2.83;;;1.80;;
76582;SDS011;65462;52.148;7.940;2023-07-20T03:45:26;2.00;;;1.55;;
76582;SDS011;65462;52.148;7.940;2023-07-20T03:47:51;2.20;;;1.80;;
76582;SDS011;65462;52.148;7.940;2023-07-20T03:50:16;2.80;;;1.77;;
76582;SDS011;65462;52.148;7.940;2023-07-20T03:52:41;3.55;;;1.70;;
76582;SDS011;65462;52.148;7.940;2023-07-20T03:55:07;2.10;;;1.67;;
76582;SDS011;65462;52.148;7.940;2023-07-20T03:57:32;2.45;;;2.05;;
76582;SDS011;65462;52.148;7.940;2023-07-20T03:59:58;2.22;;;1.70;;
76582;SDS011;65462;52.148;7.940;2023-07-20T04:02:23;2.08;;;1.63;;
76582;SDS011;65462;52.148;7.940;2023-07-20T04:04:48;2.35;;;1.63;;
76582;SDS011;65462;52.148;7.940;2023-07-20T04:07:14;2.60;;;1.90;;
76582;SDS011;65462;52.148;7.940;2023-07-20T04:09:39;3.25;;;1.77;;
76582;SDS011;65462;52.148;7.940;2023-07-20T04:12:05;1.98;;;1.77;;
76582;SDS011;65462;52.148;7.940;2023-07-20T04:14:31;2.13;;;1.77;;
76582;SDS011;65462;52.148;7.940;2023-07-20T04:16:56;2.33;;;1.58;;
76582;SDS011;65462;52.148;7.940;2023-07-20T04:19:21;1.90;;;1.63;;
76582;SDS011;65462;52.148;7.940;2023-07-20T04:21:47;3.05;;;1.60;;
76582;SDS011;65462;52.148;7.940;2023-07-20T04:24:12;1.98;;;1.63;;
76582;SDS011;65462;52.148;7.940;2023-07-20T04:26:37;2.15;;;1.48;;
76582;SDS011;65462;52.148;7.940;2023-07-20T04:29:02;3.45;;;1.48;;
76582;SDS011;65462;52.148;7.940;2023-07-20T04:31:28;2.45;;;1.50;;
76582;SDS011;65462;52.148;7.940;2023-07-20T04:33:53;1.52;;;1.30;;
76582;SDS011;65462;52.148;7.940;2023-07-20T04:36:19;1.60;;;1.30;;
76582;SDS011;65462;52.148;7.940;2023-07-20T04:38:45;2.13;;;1.77;;
76582;SDS011;65462;52.148;7.940;2023-07-20T04:41:11;2.10;;;1.20;;
76582;SDS011;65462;52.148;7.940;2023-07-20T04:43:43;2.15;;;1.50;;
76582;SDS011;65462;52.148;7.940;2023-07-20T04:46:09;1.88;;;1.30;;
76582;SDS011;65462;52.148;7.940;2023-07-20T04:48:35;3.35;;;1.55;;
76582;SDS011;65462;52.148;7.940;2023-07-20T04:51:00;2.10;;;1.48;;
76582;SDS011;65462;52.148;7.940;2023-07-20T04:53:25;1.38;;;1.13;;
76582;SDS011;65462;52.148;7.940;2023-07-20T04:55:50;1.30;;;1.00;;
76582;SDS011;65462;52.148;7.940;2023-07-20T04:58:16;2.38;;;1.15;;
76582;SDS011;65462;52.148;7.940;2023-07-20T05:00:43;2.17;;;1.30;;
76582;SDS011;65462;52.148;7.940;2023-07-20T05:03:09;2.45;;;1.40;;
76582;SDS011;65462;52.148;7.940;2023-07-20T05:05:34;1.40;;;1.00;;
76582;SDS011;65462;52.148;7.940;2023-07-20T05:07:59;3.85;;;1.42;;
76582;SDS011;65462;52.148;7.940;2023-07-20T05:10:24;2.05;;;1.00;;
76582;SDS011;65462;52.148;7.940;2023-07-20T05:12:50;1.70;;;1.20;;
76582;SDS011;65462;52.148;7.940;2023-07-20T05:15:15;2.00;;;1.20;;
76582;SDS011;65462;52.148;7.940;2023-07-20T05:17:40;2.75;;;1.40;;
76582;SDS011;65462;52.148;7.940;2023-07-20T05:20:09;3.17;;;1.20;;
76582;SDS011;65462;52.148;7.940;2023-07-20T05:22:37;1.70;;;0.90;;
76582;SDS011;65462;52.148;7.940;2023-07-20T05:25:05;1.42;;;1.10;;
76582;SDS011;65462;52.148;7.940;2023-07-20T05:27:35;1.67;;;1.10;;
76582;SDS011;65462;52.148;7.940;2023-07-20T05:30:02;1.50;;;0.90;;
76582;SDS011;65462;52.148;7.940;2023-07-20T05:32:27;1.83;;;0.90;;
76582;SDS011;65462;52.148;7.940;2023-07-20T05:34:53;2.22;;;0.82;;
76582;SDS011;65462;52.148;7.940;2023-07-20T05:37:19;1.17;;;0.93;;
76582;SDS011;65462;52.148;7.940;2023-07-20T05:39:44;1.58;;;0.95;;
76582;SDS011;65462;52.148;7.940;2023-07-20T05:42:09;1.52;;;1.10;;
76582;SDS011;65462;52.148;7.940;2023-07-20T05:44:35;2.30;;;0.80;;
76582;SDS011;65462;52.148;7.940;2023-07-20T05:47:00;2.35;;;0.93;;
76582;SDS011;65462;52.148;7.940;2023-07-20T05:49:27;0.98;;;0.80;;
76582;SDS011;65462;52.148;7.940;2023-07-20T05:51:52;1.33;;;0.80;;
76582;SDS011;65462;52.148;7.940;2023-07-20T05:54:18;2.45;;;1.00;;
76582;SDS011;65462;52.148;7.940;2023-07-20T05:56:44;1.92;;;0.90;;
76582;SDS011;65462;52.148;7.940;2023-07-20T05:59:10;1.35;;;0.95;;
76582;SDS011;65462;52.148;7.940;2023-07-20T06:01:36;1.58;;;0.80;;
76582;SDS011;65462;52.148;7.940;2023-07-20T06:04:01;0.63;;;0.60;;
76582;SDS011;65462;52.148;7.940;2023-07-20T06:06:28;1.27;;;1.00;;
76582;SDS011;65462;52.148;7.940;2023-07-20T06:08:53;1.20;;;0.85;;
76582;SDS011;65462;52.148;7.940;2023-07-20T06:11:19;2.13;;;0.90;;
76582;SDS011;65462;52.148;7.940;2023-07-20T06:13:45;1.15;;;0.77;;
76582;SDS011;65462;52.148;7.940;2023-07-20T06:16:10;1.63;;;0.75;;
76582;SDS011;65462;52.148;7.940;2023-07-20T06:18:36;1.05;;;0.93;;
76582;SDS011;65462;52.148;7.940;2023-07-20T06:21:01;1.77;;;1.00;;
76582;SDS011;65462;52.148;7.940;2023-07-20T06:23:26;1.05;;;0.82;;
76582;SDS011;65462;52.148;7.940;2023-07-20T06:25:51;1.58;;;0.95;;
76582;SDS011;65462;52.148;7.940;2023-07-20T06:28:17;1.25;;;0.95;;
76582;SDS011;65462;52.148;7.940;2023-07-20T06:30:43;1.30;;;1.00;;
76582;SDS011;65462;52.148;7.940;2023-07-20T06:33:08;1.40;;;1.00;;
76582;SDS011;65462;52.148;7.940;2023-07-20T06:35:34;2.58;;;1.17;;
76582;SDS011;65462;52.148;7.940;2023-07-20T06:38:00;2.53;;;1.50;;
76582;SDS011;65462;52.148;7.940;2023-07-20T06:40:25;1.40;;;1.30;;
76582;SDS011;65462;52.148;7.940;2023-07-20T06:42:51;2.55;;;1.40;;
76582;SDS011;65462;52.148;7.940;2023-07-20T06:45:16;2.72;;;1.17;;
76582;SDS011;65462;52.148;7.940;2023-07-20T06:47:42;1.02;;;0.95;;
76582;SDS011;65462;52.148;7.940;2023-07-20T06:50:07;1.58;;;1.30;;
76582;SDS011;65462;52.148;7.940;2023-07-20T06:52:33;1.35;;;1.00;;
76582;SDS011;65462;52.148;7.940;2023-07-20T06:54:58;1.17;;;0.93;;
76582;SDS011;65462;52.148;7.940;2023-07-20T06:57:24;1.15;;;1.05;;
76582;SDS011;65462;52.148;7.940;2023-07-20T06:59:50;1.50;;;1.30;;
76582;SDS011;65462;52.148;7.940;2023-07-20T07:02:15;2.88;;;1.13;;
76582;SDS011;65462;52.148;7.940;2023-07-20T07:04:41;2.00;;;1.48;;
76582;SDS011;65462;52.148;7.940;2023-07-20T07:07:07;2.40;;;1.27;;
76582;SDS011;65462;52.148;7.940;2023-07-20T07:09:32;1.92;;;1.23;;
76582;SDS011;65462;52.148;7.940;2023-07-20T07:11:57;3.30;;;1.40;;
76582;SDS011;65462;52.148;7.940;2023-07-20T07:14:22;2.25;;;1.80;;
76582;SDS011;65462;52.148;7.940;2023-07-20T07:16:48;2.33;;;1.70;;
76582;SDS011;65462;52.148;7.940;2023-07-20T07:19:13;2.92;;;1.60;;
76582;SDS011;65462;52.148;7.940;2023-07-20T07:21:38;2.78;;;2.08;;
76582;SDS011;65462;52.148;7.940;2023-07-20T07:24:04;1.90;;;1.67;;
76582;SDS011;65462;52.148;7.940;2023-07-20T07:26:32;2.88;;;1.92;;
76582;SDS011;65462;52.148;7.940;2023-07-20T07:28:57;3.22;;;2.05;;
76582;SDS011;65462;52.148;7.940;2023-07-20T07:31:22;3.53;;;2.67;;
76582;SDS011;65462;52.148;7.940;2023-07-20T07:33:48;2.72;;;2.50;;
76582;SDS011;65462;52.148;7.940;2023-07-20T07:36:13;2.85;;;2.33;;
76582;SDS011;65462;52.148;7.940;2023-07-20T07:38:38;3.75;;;2.67;;
76582;SDS011;65462;52.148;7.940;2023-07-20T07:41:04;2.83;;;2.50;;
76582;SDS011;65462;52.148;7.940;2023-07-20T07:43:29;3.15;;;2.63;;
76582;SDS011;65462;52.148;7.940;2023-07-20T07:45:54;3.25;;;2.95;;
76582;SDS011;65462;52.148;7.940;2023-07-20T07:48:20;3.97;;;2.90;;
76582;SDS011;65462;52.148;7.940;2023-07-20T07:50:47;3.30;;;2.67;;
76582;SDS011;65462;52.148;7.940;2023-07-20T07:53:12;3.20;;;2.45;;
76582;SDS011;65462;52.148;7.940;2023-07-20T07:55:37;3.38;;;2.70;;
76582;SDS011;65462;52.148;7.940;2023-07-20T07:58:03;3.97;;;2.85;;
76582;SDS011;65462;52.148;7.940;2023-07-20T08:00:28;4.20;;;2.50;;
76582;SDS011;65462;52.148;7.940;2023-07-20T08:02:53;3.88;;;2.13;;
76582;SDS011;65462;52.148;7.940;2023-07-20T08:05:18;2.55;;;2.17;;
76582;SDS011;65462;52.148;7.940;2023-07-20T08:07:44;2.70;;;1.90;;
76582;SDS011;65462;52.148;7.940;2023-07-20T08:10:10;2.08;;;1.75;;
76582;SDS011;65462;52.148;7.940;2023-07-20T08:12:36;2.15;;;1.95;;
76582;SDS011;65462;52.148;7.940;2023-07-20T08:15:02;2.65;;;2.17;;
76582;SDS011;65462;52.148;7.940;2023-07-20T08:17:27;2.13;;;1.92;;
76582;SDS011;65462;52.148;7.940;2023-07-20T08:19:52;2.17;;;1.98;;
76582;SDS011;65462;52.148;7.940;2023-07-20T08:22:18;2.65;;;1.95;;
76582;SDS011;65462;52.148;7.940;2023-07-20T08:24:43;4.60;;;2.30;;
76582;SDS011;65462;52.148;7.940;2023-07-20T08:27:08;2.50;;;2.30;;
76582;SDS011;65462;52.148;7.940;2023-07-20T08:29:34;2.63;;;2.33;;
76582;SDS011;65462;52.148;7.940;2023-07-20T08:32:00;2.65;;;2.00;;
76582;SDS011;65462;52.148;7.940;2023-07-20T08:34:25;2.70;;;1.55;;
76582;SDS011;65462;52.148;7.940;2023-07-20T08:36:50;3.25;;;1.70;;
76582;SDS011;65462;52.148;7.940;2023-07-20T08:39:16;2.53;;;1.90;;
76582;SDS011;65462;52.148;7.940;2023-07-20T08:41:42;1.90;;;1.42;;
76582;SDS011;65462;52.148;7.940;2023-07-20T08:44:08;1.50;;;1.40;;
76582;SDS011;65462;52.148;7.940;2023-07-20T08:46:35;1.30;;;1.20;;
76582;SDS011;65462;52.148;7.940;2023-07-20T08:49:02;1.38;;;1.27;;
76582;SDS011;65462;52.148;7.940;2023-07-20T08:51:28;1.50;;;1.30;;
76582;SDS011;65462;52.148;7.940;2023-07-20T08:53:55;1.40;;;1.30;;
76582;SDS011;65462;52.148;7.940;2023-07-20T08:56:20;1.95;;;1.58;;
76582;SDS011;65462;52.148;7.940;2023-07-20T08:58:46;2.92;;;1.88;;
76582;SDS011;65462;52.148;7.940;2023-07-20T09:01:12;2.00;;;1.80;;
76582;SDS011;65462;52.148;7.940;2023-07-20T09:03:37;1.73;;;1.45;;
76582;SDS011;65462;52.148;7.940;2023-07-20T09:06:05;1.80;;;1.50;;
76582;SDS011;65462;52.148;7.940;2023-07-20T09:08:30;2.30;;;1.40;;
76582;SDS011;65462;52.148;7.940;2023-07-20T09:10:56;1.70;;;1.60;;
76582;SDS011;65462;52.148;7.940;2023-07-20T09:13:21;1.90;;;1.70;;
76582;SDS011;65462;52.148;7.940;2023-07-20T09:15:47;2.30;;;1.45;;
76582;SDS011;65462;52.148;7.940;2023-07-20T09:18:28;2.60;;;1.63;;
76582;SDS011;65462;52.148;7.940;2023-07-20T09:21:27;1.70;;;1.55;;
76582;SDS011;65462;52.148;7.940;2023-07-20T09:23:45;1.50;;;1.40;;
76582;SDS011;65462;52.148;7.940;2023-07-20T09:26:11;2.20;;;1.10;;
76582;SDS011;65462;52.148;7.940;2023-07-20T09:28:42;1.15;;;1.00;;
76582;SDS011;65462;52.148;7.940;2023-07-20T09:31:15;1.80;;;1.27;;
76582;SDS011;65462;52.148;7.940;2023-07-20T09:33:45;1.48;;;1.20;;
76582;SDS011;65462;52.148;7.940;2023-07-20T09:36:11;2.13;;;1.10;;
76582;SDS011;65462;52.148;7.940;2023-07-20T09:38:37;2.53;;;1.60;;
76582;SDS011;65462;52.148;7.940;2023-07-20T09:41:06;1.33;;;1.23;;
76582;SDS011;65462;52.148;7.940;2023-07-20T09:43:32;1.35;;;1.23;;
76582;SDS011;65462;52.148;7.940;2023-07-20T09:45:59;1.33;;;1.23;;
76582;SDS011;65462;52.148;7.940;2023-07-20T09:48:25;1.65;;;1.05;;
76582;SDS011;65462;52.148;7.940;2023-07-20T09:50:51;1.25;;;1.02;;
76582;SDS011;65462;52.148;7.940;2023-07-20T09:53:18;1.88;;;1.13;;
76582;SDS011;65462;52.148;7.940;2023-07-20T09:55:44;1.13;;;0.85;;
76582;SDS011;65462;52.148;7.940;2023-07-20T09:58:11;1.35;;;1.00;;
76582;SDS011;65462;52.148;7.940;2023-07-20T10:00:37;1.50;;;1.08;;
76582;SDS011;65462;52.148;7.940;2023-07-20T10:03:04;1.52;;;0.73;;
76582;SDS011;65462;52.148;7.940;2023-07-20T10:05:33;1.02;;;0.93;;
76582;SDS011;65462;52.148;7.940;2023-07-20T10:08:01;1.08;;;0.80;;
76582;SDS011;65462;52.148;7.940;2023-07-20T10:10:27;0.80;;;0.80;;
76582;SDS011;65462;52.148;7.940;2023-07-20T10:12:54;0.95;;;0.80;;
76582;SDS011;65462;52.148;7.940;2023-07-20T10:15:32;1.92;;;0.70;;
76582;SDS011;65462;52.148;7.940;2023-07-20T10:18:07;1.42;;;0.70;;
76582;SDS011;65462;52.148;7.940;2023-07-20T10:20:39;0.75;;;0.50;;
76582;SDS011;65462;52.148;7.940;2023-07-20T10:23:06;0.70;;;0.70;;
76582;SDS011;65462;52.148;7.940;2023-07-20T10:25:32;1.13;;;0.80;;
76582;SDS011;65462;52.148;7.940;2023-07-20T10:28:02;0.90;;;0.70;;
76582;SDS011;65462;52.148;7.940;2023-07-20T10:30:30;0.80;;;0.63;;
76582;SDS011;65462;52.148;7.940;2023-07-20T10:32:55;0.70;;;0.60;;
76582;SDS011;65462;52.148;7.940;2023-07-20T10:35:21;0.38;;;0.38;;
76582;SDS011;65462;52.148;7.940;2023-07-20T10:37:53;0.55;;;0.40;;
76582;SDS011;65462;52.148;7.940;2023-07-20T10:48:03;1.02;;;0.50;;
76582;SDS011;65462;52.148;7.940;2023-07-20T10:50:30;0.88;;;0.35;;
76582;SDS011;65462;52.148;7.940;2023-07-20T10:53:04;0.93;;;0.45;;
76582;SDS011;65462;52.148;7.940;2023-07-20T10:55:37;0.50;;;0.40;;
76582;SDS011;65462;52.148;7.940;2023-07-20T10:58:09;1.45;;;0.30;;
76582;SDS011;65462;52.148;7.940;2023-07-20T11:00:35;0.52;;;0.32;;
76582;SDS011;65462;52.148;7.940;2023-07-20T11:03:01;0.32;;;0.30;;
76582;SDS011;65462;52.148;7.940;2023-07-20T11:05:37;0.82;;;0.45;;
76582;SDS011;65462;52.148;7.940;2023-07-20T11:08:04;0.85;;;0.40;;
76582;SDS011;65462;52.148;7.940;2023-07-20T11:10:50;0.85;;;0.30;;
76582;SDS011;65462;52.148;7.940;2023-07-20T11:13:54;1.45;;;0.30;;
76582;SDS011;65462;52.148;7.940;2023-07-20T11:21:51;0.30;;;0.30;;
76582;SDS011;65462;52.148;7.940;2023-07-20T11:24:23;0.43;;;0.20;;
76582;SDS011;65462;52.148;7.940;2023-07-20T11:26:53;0.20;;;0.20;;
76582;SDS011;65462;52.148;7.940;2023-07-20T11:29:19;0.35;;;0.28;;
76582;SDS011;65462;52.148;7.940;2023-07-20T11:31:46;0.32;;;0.20;;
76582;SDS011;65462;52.148;7.940;2023-07-20T11:34:21;0.80;;;0.32;;
76582;SDS011;65462;52.148;7.940;2023-07-20T11:36:47;1.02;;;0.30;;
76582;SDS011;65462;52.148;7.940;2023-07-20T11:39:14;0.43;;;0.30;;
76582;SDS011;65462;52.148;7.940;2023-07-20T11:41:45;0.30;;;0.30;;
76582;SDS011;65462;52.148;7.940;2023-07-20T11:44:12;1.20;;;0.20;;
76582;SDS011;65462;52.148;7.940;2023-07-20T11:46:38;0.82;;;0.50;;
76582;SDS011;65462;52.148;7.940;2023-07-20T11:49:04;0.30;;;0.20;;
76582;SDS011;65462;52.148;7.940;2023-07-20T11:51:29;0.40;;;0.28;;
76582;SDS011;65462;52.148;7.940;2023-07-20T11:53:56;0.40;;;0.30;;
76582;SDS011;65462;52.148;7.940;2023-07-20T11:56:25;0.50;;;0.35;;
76582;SDS011;65462;52.148;7.940;2023-07-20T11:58:53;0.55;;;0.30;;
76582;SDS011;65462;52.148;7.940;2023-07-20T12:01:20;0.30;;;0.28;;
76582;SDS011;65462;52.148;7.940;2023-07-20T12:03:45;0.30;;;0.28;;
76582;SDS011;65462;52.148;7.940;2023-07-20T12:06:13;0.57;;;0.22;;
76582;SDS011;65462;52.148;7.940;2023-07-20T12:08:41;0.85;;;0.32;;
76582;SDS011;65462;52.148;7.940;2023-07-20T12:11:08;0.85;;;0.25;;
76582;SDS011;65462;52.148;7.940;2023-07-20T12:13:43;0.40;;;0.30;;
76582;SDS011;65462;52.148;7.940;2023-07-20T12:16:12;0.50;;;0.30;;
76582;SDS011;65462;52.148;7.940;2023-07-20T12:18:39;0.77;;;0.30;;
76582;SDS011;65462;52.148;7.940;2023-07-20T12:21:05;0.77;;;0.32;;
76582;SDS011;65462;52.148;7.940;2023-07-20T12:23:34;1.42;;;0.30;;
76582;SDS011;65462;52.148;7.940;2023-07-20T12:26:02;0.55;;;0.20;;
76582;SDS011;65462;52.148;7.940;2023-07-20T12:28:28;0.47;;;0.20;;
76582;SDS011;65462;52.148;7.940;2023-07-20T12:30:54;2.83;;;0.30;;
76582;SDS011;65462;52.148;7.940;2023-07-20T12:33:22;2.17;;;0.20;;
76582;SDS011;65462;52.148;7.940;2023-07-20T12:35:48;2.20;;;0.30;;
76582;SDS011;65462;52.148;7.940;2023-07-20T12:38:14;0.57;;;0.20;;
76582;SDS011;65462;52.148;7.940;2023-07-20T12:40:40;0.15;;;0.15;;
76582;SDS011;65462;52.148;7.940;2023-07-20T12:43:06;1.17;;;0.20;;
76582;SDS011;65462;52.148;7.940;2023-07-20T12:45:31;0.40;;;0.20;;
76582;SDS011;65462;52.148;7.940;2023-07-20T12:47:57;0.50;;;0.30;;
76582;SDS011;65462;52.148;7.940;2023-07-20T12:50:22;0.77;;;0.30;;
76582;SDS011;65462;52.148;7.940;2023-07-20T12:52:48;0.47;;;0.20;;
76582;SDS011;65462;52.148;7.940;2023-07-20T12:55:13;0.60;;;0.30;;
76582;SDS011;65462;52.148;7.940;2023-07-20T12:57:38;0.70;;;0.30;;
76582;SDS011;65462;52.148;7.940;2023-07-20T13:00:04;0.20;;;0.20;;
76582;SDS011;65462;52.148;7.940;2023-07-20T13:02:33;0.40;;;0.30;;
76582;SDS011;65462;52.148;7.940;2023-07-20T13:04:58;0.40;;;0.38;;
76582;SDS011;65462;52.148;7.940;2023-07-20T13:07:30;1.08;;;0.30;;
76582;SDS011;65462;52.148;7.940;2023-07-20T13:12:24;0.32;;;0.20;;
76582;SDS011;65462;52.148;7.940;2023-07-20T13:14:49;1.00;;;0.40;;
76582;SDS011;65462;52.148;7.940;2023-07-20T13:17:15;0.45;;;0.35;;
76582;SDS011;65462;52.148;7.940;2023-07-20T13:19:40;1.42;;;0.47;;
76582;SDS011;65462;52.148;7.940;2023-07-20T13:22:05;0.52;;;0.30;;
76582;SDS011;65462;52.148;7.940;2023-07-20T13:24:30;1.48;;;0.30;;
76582;SDS011;65462;52.148;7.940;2023-07-20T13:26:56;0.68;;;0.40;;
76582;SDS011;65462;52.148;7.940;2023-07-20T13:29:21;2.42;;;0.40;;
76582;SDS011;65462;52.148;7.940;2023-07-20T13:31:46;0.73;;;0.28;;
76582;SDS011;65462;52.148;7.940;2023-07-20T13:34:12;0.40;;;0.30;;
76582;SDS011;65462;52.148;7.940;2023-07-20T13:36:37;0.88;;;0.47;;
76582;SDS011;65462;52.148;7.940;2023-07-20T13:39:02;0.95;;;0.40;;
76582;SDS011;65462;52.148;7.940;2023-07-20T13:41:29;0.88;;;0.52;;
76582;SDS011;65462;52.148;7.940;2023-07-20T13:43:57;1.02;;;0.40;;
76582;SDS011;65462;52.148;7.940;2023-07-20T13:46:22;0.95;;;0.40;;
76582;SDS011;65462;52.148;7.940;2023-07-20T13:48:47;0.95;;;0.22;;
76582;SDS011;65462;52.148;7.940;2023-07-20T13:51:13;0.60;;;0.30;;
76582;SDS011;65462;52.148;7.940;2023-07-20T13:53:39;0.65;;;0.40;;
76582;SDS011;65462;52.148;7.940;2023-07-20T13:56:04;1.13;;;0.35;;
76582;SDS011;65462;52.148;7.940;2023-07-20T13:58:29;0.63;;;0.40;;
76582;SDS011;65462;52.148;7.940;2023-07-20T14:00:55;2.10;;;0.40;;
76582;SDS011;65462;52.148;7.940;2023-07-20T14:03:20;0.38;;;0.20;;
76582;SDS011;65462;52.148;7.940;2023-07-20T14:05:45;0.22;;;0.15;;
76582;SDS011;65462;52.148;7.940;2023-07-20T14:08:11;0.82;;;0.32;;
76582;SDS011;65462;52.148;7.940;2023-07-20T14:10:36;0.20;;;0.20;;
76582;SDS011;65462;52.148;7.940;2023-07-20T14:13:01;0.60;;;0.40;;
76582;SDS011;65462;52.148;7.940;2023-07-20T14:15:27;0.60;;;0.20;;
76582;SDS011;65462;52.148;7.940;2023-07-20T14:17:52;0.85;;;0.30;;
76582;SDS011;65462;52.148;7.940;2023-07-20T14:20:17;0.85;;;0.15;;
76582;SDS011;65462;52.148;7.940;2023-07-20T14:22:42;0.73;;;0.10;;
76582;SDS011;65462;52.148;7.940;2023-07-20T14:25:09;0.68;;;0.20;;
76582;SDS011;65462;52.148;7.940;2023-07-20T14:27:34;0.52;;;0.30;;
76582;SDS011;65462;52.148;7.940;2023-07-20T14:30:00;0.75;;;0.20;;
76582;SDS011;65462;52.148;7.940;2023-07-20T14:32:25;0.25;;;0.20;;
76582;SDS011;65462;52.148;7.940;2023-07-20T14:34:50;0.13;;;0.13;;
76582;SDS011;65462;52.148;7.940;2023-07-20T14:37:16;0.40;;;0.20;;
76582;SDS011;65462;52.148;7.940;2023-07-20T14:39:41;0.30;;;0.10;;
76582;SDS011;65462;52.148;7.940;2023-07-20T14:42:06;0.28;;;0.20;;
76582;SDS011;65462;52.148;7.940;2023-07-20T14:44:33;0.88;;;0.20;;
76582;SDS011;65462;52.148;7.940;2023-07-20T14:46:58;1.27;;;0.30;;
76582;SDS011;65462;52.148;7.940;2023-07-20T14:49:25;0.50;;;0.20;;
76582;SDS011;65462;52.148;7.940;2023-07-20T14:51:50;0.77;;;0.20;;
76582;SDS011;65462;52.148;7.940;2023-07-20T14:54:18;0.63;;;0.35;;
76582;SDS011;65462;52.148;7.940;2023-07-20T14:56:50;2.45;;;1.27;;
76582;SDS011;65462;52.148;7.940;2023-07-20T14:59:17;0.85;;;0.20;;
76582;SDS011;65462;52.148;7.940;2023-07-20T15:01:43;0.90;;;0.28;;
76582;SDS011;65462;52.148;7.940;2023-07-20T15:04:10;1.10;;;0.40;;
76582;SDS011;65462;52.148;7.940;2023-07-20T15:06:35;1.75;;;0.30;;
76582;SDS011;65462;52.148;7.940;2023-07-20T15:09:01;0.43;;;0.20;;